createdAt,value
2018-05-03T00:02:12.100Z,54.37
2018-05-03T00:04:38.009Z,54.26
2018-05-03T00:07:04.861Z,54.33
2018-05-03T00:09:30.656Z,54.81
2018-05-03T00:11:56.507Z,55.40
2018-05-03T00:14:22.369Z,55.01
2018-05-03T00:16:49.076Z,54.28
2018-05-03T00:19:15.105Z,54.35
2018-05-03T00:21:40.941Z,54.21
2018-05-03T00:24:06.756Z,55.16
2018-05-03T00:26:33.484Z,55.85
2018-05-03T00:28:59.316Z,54.82
2018-05-03T00:31:25.998Z,55.62
2018-05-03T00:33:52.704Z,54.62
2018-05-03T00:36:18.499Z,54.77
2018-05-03T00:38:44.296Z,54.17
2018-05-03T00:41:10.183Z,55.28
2018-05-03T00:43:37.005Z,55.04
2018-05-03T00:46:02.840Z,55.98
2018-05-03T00:48:29.513Z,56.37
2018-05-03T00:50:56.304Z,54.78
2018-05-03T00:53:22.106Z,54.59
2018-05-03T00:55:48.788Z,55.15
2018-05-03T00:58:15.540Z,55.48
2018-05-03T01:00:44.371Z,54.70
2018-05-03T01:03:10.232Z,55.59
2018-05-03T01:05:36.064Z,55.77
2018-05-03T01:08:02.672Z,54.73
2018-05-03T01:10:29.554Z,55.45
2018-05-03T01:12:55.356Z,55.68
2018-05-03T01:15:21.168Z,54.79
2018-05-03T01:17:47.985Z,54.46
2018-05-03T01:20:13.803Z,54.54
2018-05-03T01:22:40.536Z,54.83
2018-05-03T01:25:06.366Z,54.40
2018-05-03T01:27:32.168Z,54.50
2018-05-03T01:29:57.996Z,54.72
2018-05-03T01:32:23.857Z,54.71
2018-05-03T01:34:55.745Z,55.23
2018-05-03T01:37:21.640Z,55.74
2018-05-03T01:39:47.499Z,54.76
2018-05-03T01:42:13.325Z,54.78
2018-05-03T01:44:40.067Z,54.60
2018-05-03T01:47:07.002Z,54.72
2018-05-03T01:49:32.912Z,54.61
2018-05-03T01:51:58.804Z,54.88
2018-05-03T01:54:24.769Z,55.67
2018-05-03T01:56:50.683Z,54.88
2018-05-03T01:59:16.532Z,54.55
2018-05-03T02:01:42.501Z,54.89
2018-05-03T02:04:08.323Z,55.01
2018-05-03T02:06:35.172Z,55.33
2018-05-03T02:09:01.018Z,56.00
2018-05-03T02:11:26.860Z,54.90
2018-05-03T02:13:52.745Z,54.81
2018-05-03T02:16:18.541Z,55.85
2018-05-03T02:18:44.427Z,55.00
2018-05-03T02:21:10.237Z,55.15
2018-05-03T02:23:36.096Z,55.12
2018-05-03T02:26:01.957Z,55.22
2018-05-03T02:28:27.828Z,55.00
2018-05-03T02:30:53.636Z,54.71
2018-05-03T02:33:19.529Z,54.77
2018-05-03T02:35:45.838Z,54.62
2018-05-03T02:38:11.684Z,54.91
2018-05-03T02:40:37.480Z,55.11
2018-05-03T02:43:03.356Z,54.94
2018-05-03T02:45:31.491Z,54.80
2018-05-03T02:47:57.364Z,54.96
2018-05-03T02:50:23.981Z,55.05
2018-05-03T02:52:49.823Z,55.44
2018-05-03T02:55:15.692Z,56.38
2018-05-03T02:57:53.998Z,55.48
2018-05-03T03:00:32.316Z,55.35
2018-05-03T03:03:10.557Z,55.32
2018-05-03T03:05:48.852Z,55.41
2018-05-03T03:11:48.224Z,57.24
2018-05-03T03:14:27.172Z,56.42
2018-05-03T03:17:05.328Z,55.76
2018-05-03T03:19:35.049Z,55.67
2018-05-03T03:22:13.268Z,55.32
2018-05-03T03:24:45.157Z,55.34
2018-05-03T03:30:27.090Z,55.62
2018-05-03T03:32:58.949Z,55.29
2018-05-03T03:38:28.513Z,55.31
2018-05-03T03:41:00.384Z,55.11
2018-05-03T03:43:32.318Z,54.92
2018-05-03T03:45:58.165Z,54.85
2018-05-03T03:48:23.996Z,54.97
2018-05-03T03:50:49.838Z,54.88
2018-05-03T03:53:15.652Z,54.81
2018-05-03T03:55:41.508Z,54.70
2018-05-03T03:58:07.359Z,54.74
2018-05-03T04:00:33.200Z,55.08
2018-05-03T04:02:59.004Z,55.37
2018-05-03T04:05:24.867Z,55.33
2018-05-03T04:07:50.863Z,54.98
2018-05-03T04:10:17.503Z,55.04
2018-05-03T04:12:44.243Z,54.87
2018-05-03T04:15:10.132Z,55.02
2018-05-03T04:17:43.107Z,55.55
2018-05-03T04:20:15.193Z,54.99
2018-05-03T04:22:47.232Z,55.04
2018-05-03T04:25:19.322Z,54.94
2018-05-03T04:27:45.212Z,55.20
2018-05-03T04:30:11.152Z,55.13
2018-05-03T04:32:36.984Z,54.95
2018-05-03T04:35:02.869Z,55.02
2018-05-03T04:37:29.721Z,55.09
2018-05-03T04:39:57.316Z,55.03
2018-05-03T04:42:23.948Z,54.99
2018-05-03T04:44:49.788Z,54.99
2018-05-03T04:47:16.464Z,54.71
2018-05-03T04:49:42.297Z,54.92
2018-05-03T04:52:13.814Z,54.96
2018-05-03T04:54:39.660Z,56.29
2018-05-03T04:57:06.925Z,55.53
2018-05-03T04:59:32.728Z,55.29
2018-05-03T05:01:58.566Z,55.54
2018-05-03T05:04:25.252Z,56.32
2018-05-03T05:06:51.980Z,54.91
2018-05-03T05:09:17.792Z,54.92
2018-05-03T05:11:43.659Z,54.56
2018-05-03T05:14:09.673Z,54.85
2018-05-03T05:16:35.477Z,54.63
2018-05-03T05:19:01.296Z,55.11
2018-05-03T05:21:27.308Z,54.66
2018-05-03T05:23:54.000Z,54.40
2018-05-03T05:26:19.828Z,53.92
2018-05-03T05:28:45.730Z,54.17
2018-05-03T05:31:12.369Z,53.97
2018-05-03T05:33:38.780Z,53.78
2018-05-03T05:36:04.659Z,53.83
2018-05-03T05:38:30.478Z,53.84
2018-05-03T05:40:57.308Z,53.95
2018-05-03T05:43:23.111Z,54.07
2018-05-03T05:45:48.941Z,53.82
2018-05-03T05:48:14.739Z,54.02
2018-05-03T05:50:40.564Z,54.27
2018-05-03T05:53:07.328Z,54.04
2018-05-03T05:55:34.056Z,54.27
2018-05-03T05:58:00.804Z,54.30
2018-05-03T06:00:26.633Z,54.26
2018-05-03T06:02:53.308Z,54.29
2018-05-03T06:05:19.139Z,54.41
2018-05-03T06:07:44.941Z,54.09
2018-05-03T06:10:11.608Z,54.61
2018-05-03T06:12:37.561Z,54.72
2018-05-03T06:15:03.491Z,54.31
2018-05-03T06:17:29.470Z,54.44
2018-05-03T06:19:55.261Z,54.41
2018-05-03T06:22:21.922Z,54.43
2018-05-03T06:24:48.693Z,54.63
2018-05-03T06:27:14.488Z,54.68
2018-05-03T06:29:40.336Z,54.53
2018-05-03T06:32:07.187Z,54.93
2018-05-03T06:34:32.996Z,55.27
2018-05-03T06:36:59.745Z,54.64
2018-05-03T06:39:25.764Z,54.96
2018-05-03T06:41:51.472Z,55.20
2018-05-03T06:44:17.380Z,54.85
2018-05-03T06:46:43.183Z,55.51
2018-05-03T06:49:09.904Z,55.82
2018-05-03T06:51:35.772Z,56.06
2018-05-03T06:54:01.528Z,55.71
2018-05-03T06:56:27.328Z,56.11
2018-05-03T06:58:53.128Z,55.87
2018-05-03T07:01:19.808Z,56.12
2018-05-03T07:03:45.630Z,55.96
2018-05-03T07:06:11.432Z,56.12
2018-05-03T07:08:37.240Z,55.94
2018-05-03T07:11:03.054Z,55.61
2018-05-03T07:13:29.757Z,55.60
2018-05-03T07:15:55.556Z,55.57
2018-05-03T07:18:21.356Z,55.37
2018-05-03T07:20:48.008Z,55.68
2018-05-03T07:23:13.803Z,55.38
2018-05-03T07:25:40.624Z,55.68
2018-05-03T07:28:06.420Z,55.54
2018-05-03T07:30:32.216Z,55.76
2018-05-03T07:32:58.176Z,55.91
2018-05-03T07:35:24.390Z,55.49
2018-05-03T07:38:01.577Z,55.41
2018-05-03T07:40:30.045Z,55.22
2018-05-03T07:42:55.948Z,55.13
2018-05-03T07:45:21.740Z,55.22
2018-05-03T07:47:47.540Z,55.22
2018-05-03T07:50:13.400Z,55.37
2018-05-03T07:52:39.195Z,55.24
2018-05-03T07:55:05.042Z,55.44
2018-05-03T07:57:30.854Z,55.32
2018-05-03T07:59:56.647Z,55.20
2018-05-03T08:02:22.452Z,55.21
2018-05-03T08:04:48.930Z,55.49
2018-05-03T08:07:14.732Z,55.44
2018-05-03T08:09:40.523Z,55.71
2018-05-03T08:12:06.320Z,55.78
2018-05-03T08:14:32.140Z,55.82
2018-05-03T08:16:58.876Z,56.00
2018-05-03T08:19:25.490Z,55.80
2018-05-03T08:21:52.077Z,55.98
2018-05-03T08:24:17.876Z,55.94
2018-05-03T08:26:43.679Z,56.12
2018-05-03T08:29:09.483Z,55.94
2018-05-03T08:31:35.304Z,56.23
2018-05-03T08:34:01.109Z,56.21
2018-05-03T08:36:27.048Z,56.02
2018-05-03T08:38:53.873Z,55.98
2018-05-03T08:41:20.631Z,55.94
2018-05-03T08:43:47.352Z,55.91
2018-05-03T08:46:13.149Z,56.01
2018-05-03T08:48:40.010Z,55.88
2018-05-03T08:51:11.708Z,55.86
2018-05-03T08:53:38.345Z,55.68
2018-05-03T08:56:04.145Z,55.29
2018-05-03T08:58:30.752Z,54.89
2018-05-03T09:00:56.610Z,54.59
2018-05-03T09:03:23.297Z,54.29
2018-05-03T09:05:49.103Z,54.00
2018-05-03T09:08:15.019Z,53.94
2018-05-03T09:10:40.853Z,53.88
2018-05-03T09:13:07.500Z,53.73
2018-05-03T09:15:33.296Z,53.78
2018-05-03T09:17:59.098Z,53.78
2018-05-03T09:20:26.040Z,53.58
2018-05-03T09:22:51.857Z,53.72
2018-05-03T09:25:18.573Z,53.78
2018-05-03T09:27:44.368Z,53.65
2018-05-03T09:30:11.025Z,53.74
2018-05-03T09:32:36.857Z,53.82
2018-05-03T09:35:03.652Z,53.83
2018-05-03T09:37:29.447Z,53.93
2018-05-03T09:39:55.286Z,53.71
2018-05-03T09:42:21.929Z,53.74
2018-05-03T09:44:48.741Z,53.81
2018-05-03T09:47:14.521Z,53.95
2018-05-03T09:49:41.210Z,53.93
2018-05-03T09:52:07.865Z,53.85
2018-05-03T09:54:34.626Z,53.91
2018-05-03T09:57:01.396Z,53.90
2018-05-03T09:59:27.236Z,53.94
2018-05-03T10:01:53.065Z,54.00
2018-05-03T10:04:19.723Z,53.90
2018-05-03T10:06:45.564Z,53.99
2018-05-03T10:09:11.365Z,54.10
2018-05-03T10:11:38.029Z,54.19
2018-05-03T10:14:04.612Z,54.23
2018-05-03T10:16:31.461Z,54.26
2018-05-03T10:18:58.207Z,54.29
2018-05-03T10:21:24.014Z,54.17
2018-05-03T10:23:49.841Z,54.06
2018-05-03T10:26:16.475Z,54.04
2018-05-03T10:28:42.313Z,54.22
2018-05-03T10:31:08.488Z,54.23
2018-05-03T10:33:35.128Z,54.29
2018-05-03T10:36:01.038Z,54.23
2018-05-03T10:38:27.783Z,54.24
2018-05-03T10:40:53.580Z,54.38
2018-05-03T10:43:20.205Z,54.20
2018-05-03T10:45:46.984Z,54.13
2018-05-03T10:48:12.773Z,54.24
2018-05-03T10:50:39.503Z,54.13
2018-05-03T10:53:06.331Z,54.37
2018-05-03T10:55:33.191Z,54.42
2018-05-03T10:57:58.996Z,54.31
2018-05-03T11:00:24.801Z,54.49
2018-05-03T11:02:50.624Z,54.27
2018-05-03T11:05:16.465Z,54.15
2018-05-03T11:07:42.279Z,54.22
2018-05-03T11:10:08.997Z,54.35
2018-05-03T11:12:35.511Z,54.50
2018-05-03T11:15:02.202Z,54.14
2018-05-03T11:17:28.004Z,54.15
2018-05-03T11:19:53.824Z,54.30
2018-05-03T11:22:19.619Z,54.27
2018-05-03T11:24:45.505Z,54.40
2018-05-03T11:27:12.163Z,54.28
2018-05-03T11:29:37.960Z,54.64
2018-05-03T11:32:03.769Z,54.53
2018-05-03T11:34:29.619Z,54.35
2018-05-03T11:36:56.287Z,54.48
2018-05-03T11:39:22.248Z,54.45
2018-05-03T11:41:48.043Z,54.55
2018-05-03T11:44:13.841Z,54.61
2018-05-03T11:46:40.596Z,54.52
2018-05-03T11:49:06.413Z,54.39
2018-05-03T11:51:32.217Z,54.71
2018-05-03T11:53:58.017Z,54.72
2018-05-03T11:56:23.812Z,54.58
2018-05-03T11:58:49.621Z,54.72
2018-05-03T12:01:15.420Z,54.78
2018-05-03T12:03:41.216Z,54.79
2018-05-03T12:06:07.103Z,54.92
2018-05-03T12:08:33.745Z,54.75
2018-05-03T12:11:00.532Z,54.83
2018-05-03T12:13:26.329Z,54.66
2018-05-03T12:15:52.140Z,54.52
2018-05-03T12:18:17.936Z,54.64
2018-05-03T12:20:44.700Z,54.96
2018-05-03T12:23:10.496Z,55.00
2018-05-03T12:25:36.293Z,54.77
2018-05-03T12:28:02.088Z,54.63
2018-05-03T12:30:27.884Z,54.68
2018-05-03T12:32:54.558Z,54.79
2018-05-03T12:35:21.352Z,54.93
2018-05-03T12:37:48.144Z,54.84
2018-05-03T12:40:14.915Z,54.80
2018-05-03T12:42:40.713Z,54.88
2018-05-03T12:45:07.477Z,54.65
2018-05-03T12:47:33.271Z,54.90
2018-05-03T12:49:59.102Z,54.93
2018-05-03T12:52:24.908Z,54.94
2018-05-03T12:54:50.736Z,54.85
2018-05-03T12:57:17.361Z,54.97
2018-05-03T12:59:43.989Z,55.05
2018-05-03T13:02:10.656Z,54.95
2018-05-03T13:04:36.489Z,55.08
2018-05-03T13:07:02.289Z,55.05
2018-05-03T13:09:29.008Z,54.90
2018-05-03T13:11:54.865Z,54.88
2018-05-03T13:14:20.657Z,54.75
2018-05-03T13:16:46.506Z,54.74
2018-05-03T13:19:13.364Z,54.98
2018-05-03T13:21:39.163Z,55.01
2018-05-03T13:24:05.916Z,55.11
2018-05-03T13:26:31.734Z,55.16
2018-05-03T13:28:58.395Z,55.07
2018-05-03T13:31:24.294Z,54.99
2018-05-03T13:33:50.981Z,54.89
2018-05-03T13:36:17.596Z,55.11
2018-05-03T13:38:44.215Z,55.11
2018-05-03T13:41:11.052Z,55.27
2018-05-03T13:43:37.528Z,55.12
2018-05-03T13:46:04.313Z,54.88
2018-05-03T13:48:31.100Z,54.40
2018-05-03T13:50:57.823Z,54.11
2018-05-03T13:53:23.742Z,53.83
2018-05-03T13:55:50.578Z,53.59
2018-05-03T13:58:16.380Z,53.40
2018-05-03T14:00:43.253Z,53.20
2018-05-03T14:03:09.013Z,53.33
2018-05-03T14:05:35.657Z,53.28
2018-05-03T14:08:02.416Z,53.23
2018-05-03T14:10:28.779Z,53.05
2018-05-03T14:12:54.601Z,53.13
2018-05-03T14:15:20.400Z,53.04
2018-05-03T14:17:46.245Z,53.07
2018-05-03T14:20:13.123Z,53.23
2018-05-03T14:22:39.488Z,53.28
2018-05-03T14:25:06.136Z,53.20
2018-05-03T14:27:31.968Z,53.24
2018-05-03T14:29:58.628Z,53.31
2018-05-03T14:32:24.460Z,53.46
2018-05-03T14:34:50.370Z,53.41
2018-05-03T14:37:17.011Z,53.30
2018-05-03T14:39:42.843Z,53.52
2018-05-03T14:42:09.624Z,53.42
2018-05-03T14:44:35.456Z,53.60
2018-05-03T14:47:01.248Z,53.40
2018-05-03T14:49:28.073Z,53.45
2018-05-03T14:51:54.796Z,53.49
2018-05-03T14:54:20.588Z,53.63
2018-05-03T14:56:46.389Z,53.33
2018-05-03T14:59:13.170Z,53.43
2018-05-03T15:01:39.911Z,53.53
2018-05-03T15:04:05.708Z,53.60
2018-05-03T15:06:32.721Z,53.54
2018-05-03T15:08:59.382Z,53.67
2018-05-03T15:11:25.180Z,53.67
2018-05-03T15:13:50.992Z,53.54
2018-05-03T15:16:16.899Z,53.43
2018-05-03T15:18:43.532Z,53.70
2018-05-03T15:21:09.325Z,53.76
2018-05-03T15:23:35.123Z,53.80
2018-05-03T15:26:00.916Z,53.71
2018-05-03T15:28:26.715Z,53.70
2018-05-03T15:30:52.514Z,53.77
2018-05-03T15:33:19.329Z,53.80
2018-05-03T15:35:45.124Z,53.81
2018-05-03T15:38:10.923Z,54.00
2018-05-03T15:40:36.843Z,54.04
2018-05-03T15:43:02.636Z,54.04
2018-05-03T15:45:28.440Z,53.81
2018-05-03T15:47:54.239Z,53.86
2018-05-03T15:50:20.345Z,54.06
2018-05-03T15:52:46.145Z,53.80
2018-05-03T15:55:12.785Z,53.91
2018-05-03T15:57:38.584Z,53.58
2018-05-03T16:00:04.387Z,53.97
2018-05-03T16:02:30.294Z,53.96
2018-05-03T16:04:56.096Z,53.61
2018-05-03T16:07:21.900Z,54.07
2018-05-03T16:09:47.696Z,53.79
2018-05-03T16:12:13.495Z,53.31
2018-05-03T16:14:39.289Z,54.14
2018-05-03T16:17:05.090Z,53.98
2018-05-03T16:19:30.885Z,53.84
2018-05-03T16:21:56.691Z,54.25
2018-05-03T16:24:22.508Z,54.26
2018-05-03T16:26:48.320Z,54.36
2018-05-03T16:29:14.117Z,53.91
2018-05-03T16:31:39.920Z,54.34
2018-05-03T16:34:05.720Z,54.22
2018-05-03T16:36:31.517Z,54.05
2018-05-03T16:38:57.313Z,53.95
2018-05-03T16:41:23.112Z,53.61
2018-05-03T16:43:48.924Z,53.91
2018-05-03T16:46:15.692Z,53.99
2018-05-03T16:48:42.480Z,54.29
2018-05-03T16:51:08.293Z,53.20
2018-05-03T16:53:35.004Z,54.11
2018-05-03T16:56:01.775Z,54.25
2018-05-03T16:58:28.423Z,53.45
2018-05-03T17:00:54.347Z,53.99
2018-05-03T17:03:20.150Z,54.28
2018-05-03T17:05:46.934Z,54.40
2018-05-03T17:08:12.737Z,54.07
2018-05-03T17:10:38.580Z,53.67
2018-05-03T17:13:04.424Z,54.44
2018-05-03T17:15:30.725Z,54.12
2018-05-03T17:17:57.965Z,54.01
2018-05-03T17:20:24.729Z,54.43
2018-05-03T17:22:50.568Z,54.19
2018-05-03T17:25:16.373Z,54.45
2018-05-03T17:27:42.233Z,54.17
2018-05-03T17:30:08.038Z,53.80
2018-05-03T17:32:34.826Z,53.98
2018-05-03T17:35:00.625Z,53.72
2018-05-03T17:37:27.280Z,53.91
2018-05-03T17:39:53.081Z,53.99
2018-05-03T17:42:18.928Z,54.11
2018-05-03T17:44:44.765Z,54.35
2018-05-03T17:47:10.602Z,53.72
2018-05-03T17:49:37.476Z,53.48
2018-05-03T17:52:04.132Z,53.86
2018-05-03T17:54:30.945Z,53.12
2018-05-03T17:56:57.815Z,54.30
2018-05-03T17:59:24.477Z,54.00
2018-05-03T18:01:50.398Z,53.70
2018-05-03T18:04:16.389Z,53.88
2018-05-03T18:06:42.200Z,53.84
2018-05-03T18:09:08.053Z,54.01
2018-05-03T18:11:33.881Z,53.56
2018-05-03T18:14:00.505Z,54.06
2018-05-03T18:16:26.349Z,53.99
2018-05-03T18:18:52.170Z,53.89
2018-05-03T18:21:18.933Z,54.02
2018-05-03T18:23:44.744Z,53.82
2018-05-03T18:26:10.605Z,54.12
2018-05-03T18:28:37.157Z,54.00
2018-05-03T18:31:04.095Z,53.69
2018-05-03T18:33:30.832Z,53.86
2018-05-03T18:35:56.756Z,54.03
2018-05-03T18:38:22.554Z,53.77
2018-05-03T18:40:48.501Z,53.92
2018-05-03T18:43:15.269Z,53.89
2018-05-03T18:45:41.072Z,53.83
2018-05-03T18:48:06.981Z,53.54
2018-05-03T18:50:33.782Z,53.54
2018-05-03T18:52:59.580Z,53.88
2018-05-03T18:55:25.391Z,53.70
2018-05-03T18:57:51.225Z,53.95
2018-05-03T19:00:18.004Z,53.96
2018-05-03T19:02:43.824Z,53.92
2018-05-03T19:05:09.677Z,53.73
2018-05-03T19:07:36.476Z,53.80
2018-05-03T19:10:02.300Z,53.64
2018-05-03T19:12:28.108Z,53.44
2018-05-03T19:14:53.909Z,53.23
2018-05-03T19:17:19.705Z,53.31
2018-05-03T19:19:45.509Z,52.87
2018-05-03T19:22:11.314Z,53.16
2018-05-03T19:24:37.127Z,53.51
2018-05-03T19:27:03.959Z,53.42
2018-05-03T19:29:29.832Z,53.27
2018-05-03T19:31:55.673Z,53.31
2018-05-03T19:34:21.483Z,53.15
2018-05-03T19:36:47.285Z,53.16
2018-05-03T19:39:13.124Z,53.14
2018-05-03T19:41:38.929Z,52.95
2018-05-03T19:44:04.796Z,52.70
2018-05-03T19:46:30.641Z,52.76
2018-05-03T19:48:56.505Z,53.41
2018-05-03T19:51:22.337Z,53.28
2018-05-03T19:53:48.174Z,53.10
2018-05-03T19:56:14.067Z,53.19
2018-05-03T19:58:39.897Z,52.30
2018-05-03T20:01:05.704Z,52.64
2018-05-03T20:03:31.509Z,53.43
2018-05-03T20:05:57.615Z,53.18
2018-05-03T20:08:23.588Z,52.63
2018-05-03T20:10:50.287Z,52.59
2018-05-03T20:13:17.069Z,52.99
2018-05-03T20:15:43.117Z,52.89
2018-05-03T20:18:08.920Z,52.47
2018-05-03T20:20:35.797Z,51.49
2018-05-03T20:23:01.617Z,52.31
2018-05-03T20:25:28.433Z,52.55
2018-05-03T20:27:54.236Z,52.33
2018-05-03T20:30:20.069Z,51.29
2018-05-03T20:32:45.974Z,52.75
2018-05-03T20:35:11.812Z,50.90
2018-05-03T20:37:37.825Z,50.93
2018-05-03T20:40:03.636Z,47.73
2018-05-03T20:42:29.449Z,48.72
2018-05-03T20:44:55.306Z,50.33
2018-05-03T20:47:21.203Z,47.72
2018-05-03T20:49:47.000Z,47.98
2018-05-03T20:52:12.857Z,48.89
2018-05-03T20:54:38.865Z,49.67
2018-05-03T20:57:04.787Z,48.75
2018-05-03T20:59:30.587Z,48.83
2018-05-03T21:01:56.423Z,48.80
2018-05-03T21:04:22.224Z,49.52
2018-05-03T21:06:48.060Z,50.35
2018-05-03T21:09:13.863Z,49.45
2018-05-03T21:11:39.689Z,49.59
2018-05-03T21:14:05.669Z,47.74
2018-05-03T21:16:31.584Z,48.54
2018-05-03T21:18:57.396Z,49.63
2018-05-03T21:21:23.196Z,49.07
2018-05-03T21:23:49.001Z,49.12
2018-05-03T21:26:15.875Z,50.24
2018-05-03T21:28:42.481Z,49.51
2018-05-03T21:31:08.325Z,48.79
2018-05-03T21:33:34.239Z,50.37
2018-05-03T21:36:00.076Z,49.96
2018-05-03T21:38:25.945Z,49.55
2018-05-03T21:40:51.773Z,50.66
2018-05-03T21:43:18.356Z,50.28
2018-05-03T21:45:44.193Z,49.65
2018-05-03T21:48:10.033Z,49.96
2018-05-03T21:50:35.832Z,50.26
2018-05-03T21:53:02.472Z,49.74
2018-05-03T21:55:28.272Z,50.28
2018-05-03T21:57:54.160Z,50.06
2018-05-03T22:00:20.010Z,49.45
2018-05-03T22:02:46.765Z,50.03
2018-05-03T22:05:12.560Z,49.65
2018-05-03T22:07:38.355Z,49.42
2018-05-03T22:10:04.208Z,49.86
2018-05-03T22:12:30.125Z,49.31
2018-05-03T22:14:56.748Z,49.58
2018-05-03T22:17:23.561Z,49.82
2018-05-03T22:19:49.369Z,48.45
2018-05-03T22:22:15.182Z,45.38
2018-05-03T22:24:41.036Z,45.81
2018-05-03T22:27:06.833Z,46.51
2018-05-03T22:29:33.597Z,44.98
2018-05-03T22:31:59.485Z,45.33
2018-05-03T22:34:25.291Z,44.96
2018-05-03T22:36:51.151Z,44.51
2018-05-03T22:39:17.006Z,45.33
2018-05-03T22:41:42.897Z,45.27
2018-05-03T22:44:08.689Z,44.68
2018-05-03T22:46:35.284Z,44.94
2018-05-03T22:49:02.005Z,45.17
2018-05-03T22:51:28.757Z,45.19
2018-05-03T22:53:55.548Z,44.86
2018-05-03T22:56:21.501Z,44.91
2018-05-03T22:58:47.301Z,44.77
2018-05-03T23:01:14.112Z,45.03
2018-05-03T23:03:39.987Z,44.92
2018-05-03T23:06:05.939Z,44.91
2018-05-03T23:08:31.744Z,44.82
2018-05-03T23:10:58.524Z,45.27
2018-05-03T23:13:24.357Z,45.05
2018-05-03T23:15:50.244Z,44.89
2018-05-03T23:18:16.055Z,44.88
2018-05-03T23:20:41.852Z,45.53
2018-05-03T23:23:07.652Z,45.62
2018-05-03T23:25:33.457Z,44.73
2018-05-03T23:27:59.269Z,45.06
2018-05-03T23:30:25.072Z,45.02
2018-05-03T23:32:50.900Z,44.81
2018-05-03T23:35:16.730Z,44.39
2018-05-03T23:37:42.621Z,45.14
2018-05-03T23:40:08.420Z,44.84
2018-05-03T23:42:34.260Z,45.18
2018-05-03T23:45:00.061Z,44.88
2018-05-03T23:47:25.860Z,45.30
2018-05-03T23:49:51.668Z,45.00
2018-05-03T23:52:17.464Z,45.20
2018-05-03T23:54:43.258Z,44.76
2018-05-03T23:57:09.941Z,44.54
2018-05-03T23:59:36.538Z,44.92
